createdAt,value
2022-12-01T00:01:19.682Z,53.90
2022-12-01T00:03:46.457Z,56.88
2022-12-01T00:06:16.527Z,54.50
2022-12-01T00:09:04.486Z,49.65
2022-12-01T00:11:31.867Z,49.78
2022-12-01T00:13:58.787Z,50.83
2022-12-01T00:16:25.781Z,52.45
2022-12-01T00:18:53.622Z,56.88
2022-12-01T00:21:22.773Z,54.30
2022-12-01T00:23:57.662Z,48.55
2022-12-01T00:26:25.826Z,47.75
2022-12-01T00:28:54.421Z,54.35
2022-12-01T00:31:21.826Z,48.08
2022-12-01T00:33:48.611Z,43.92
2022-12-01T00:36:15.537Z,47.40
2022-12-01T00:38:42.541Z,49.20
2022-12-01T00:41:09.547Z,55.60
2022-12-01T00:43:36.462Z,50.03
2022-12-01T00:46:03.561Z,50.20
2022-12-01T00:48:30.440Z,47.42
2022-12-01T00:50:57.311Z,47.58
2022-12-01T00:53:24.727Z,44.88
2022-12-01T00:55:54.064Z,52.78
2022-12-01T00:58:21.676Z,51.90
2022-12-01T01:00:48.742Z,51.50
2022-12-01T01:03:15.802Z,45.47
2022-12-01T01:05:43.641Z,47.35
2022-12-01T01:08:14.972Z,45.65
2022-12-01T01:10:43.802Z,47.28
2022-12-01T01:13:11.661Z,45.75
2022-12-01T01:15:38.882Z,54.28
2022-12-01T01:18:06.714Z,51.45
2022-12-01T01:20:33.902Z,51.95
2022-12-01T01:23:00.751Z,51.20
2022-12-01T01:25:27.530Z,48.95
2022-12-01T01:27:54.327Z,48.67
2022-12-01T01:30:21.203Z,59.20
2022-12-01T01:32:48.037Z,55.40
2022-12-01T01:35:14.855Z,52.97
2022-12-01T01:37:41.622Z,58.05
2022-12-01T01:40:09.135Z,51.28
2022-12-01T01:42:35.870Z,45.63
2022-12-01T01:45:02.800Z,46.13
2022-12-01T01:47:34.556Z,47.17
2022-12-01T01:50:09.261Z,47.03
2022-12-01T01:52:45.054Z,43.25
2022-12-01T01:55:12.823Z,50.92
2022-12-01T01:57:40.715Z,50.67
2022-12-01T02:00:14.450Z,48.13
2022-12-01T02:02:46.051Z,55.90
2022-12-01T02:05:25.834Z,45.70
2022-12-01T02:07:55.250Z,47.97
2022-12-01T02:10:29.598Z,50.03
2022-12-01T02:13:31.612Z,52.28
2022-12-01T02:16:17.357Z,50.67
2022-12-01T02:18:56.253Z,48.83
2022-12-01T02:21:48.195Z,53.20
2022-12-01T02:24:25.212Z,62.50
2022-12-01T02:27:02.284Z,50.67
2022-12-01T02:29:47.724Z,43.13
2022-12-01T02:32:33.428Z,47.13
2022-12-01T02:35:40.334Z,48.05
2022-12-01T02:38:20.007Z,50.10
2022-12-01T02:40:50.906Z,45.22
2022-12-01T02:43:30.612Z,45.17
2022-12-01T02:46:22.969Z,47.95
2022-12-01T02:48:53.417Z,48.58
2022-12-01T02:51:22.521Z,46.10
2022-12-01T02:53:49.652Z,51.17
2022-12-01T02:56:21.319Z,46.20
2022-12-01T02:58:48.080Z,43.83
2022-12-01T03:01:43.144Z,49.22
2022-12-01T03:04:25.099Z,49.13
2022-12-01T03:07:17.488Z,46.00
2022-12-01T03:09:52.928Z,54.03
2022-12-01T03:12:19.600Z,47.67
2022-12-01T03:15:02.156Z,47.72
2022-12-01T03:17:44.032Z,40.95
2022-12-01T03:20:41.347Z,49.33
2022-12-01T03:23:14.160Z,46.03
2022-12-01T03:25:44.223Z,42.33
2022-12-01T03:28:21.085Z,47.28
2022-12-01T03:30:50.982Z,44.67
2022-12-01T03:33:35.030Z,50.35
2022-12-01T03:36:09.216Z,45.47
2022-12-01T03:38:37.662Z,44.35
2022-12-01T03:41:19.480Z,47.10
2022-12-01T03:43:53.500Z,46.97
2022-12-01T03:46:46.511Z,44.20
2022-12-01T03:49:16.423Z,45.90
2022-12-01T03:51:46.047Z,43.03
2022-12-01T03:54:34.605Z,48.33
2022-12-01T03:57:08.458Z,44.88
2022-12-01T03:59:37.847Z,41.88
2022-12-01T04:02:07.090Z,47.40
2022-12-01T04:04:34.167Z,42.25
2022-12-01T04:07:00.890Z,41.53
2022-12-01T04:09:27.711Z,42.95
2022-12-01T04:12:13.268Z,48.15
2022-12-01T04:14:40.062Z,48.03
2022-12-01T04:17:06.819Z,50.78
2022-12-01T04:19:33.575Z,47.30
2022-12-01T04:22:00.436Z,46.22
2022-12-01T04:24:27.152Z,45.63
2022-12-01T04:26:53.824Z,43.63
2022-12-01T04:29:20.529Z,45.60
2022-12-01T04:31:47.381Z,40.35
2022-12-01T04:34:14.117Z,45.63
2022-12-01T04:36:40.903Z,45.63
2022-12-01T04:39:07.589Z,48.05
2022-12-01T04:41:34.404Z,42.13
2022-12-01T04:44:01.143Z,53.15
2022-12-01T04:46:28.268Z,43.80
2022-12-01T04:48:55.071Z,46.67
2022-12-01T04:51:22.385Z,44.97
2022-12-01T04:53:50.756Z,43.47
2022-12-01T04:56:17.984Z,46.55
2022-12-01T04:58:45.816Z,50.67
2022-12-01T05:01:15.236Z,42.67
2022-12-01T05:03:44.295Z,42.60
2022-12-01T05:06:17.222Z,45.95
2022-12-01T05:08:44.120Z,47.65
2022-12-01T05:11:12.463Z,51.95
2022-12-01T05:13:40.950Z,43.35
2022-12-01T05:16:14.006Z,46.33
2022-12-01T05:18:41.553Z,45.17
2022-12-01T05:21:10.779Z,45.25
2022-12-01T05:23:39.035Z,51.40
2022-12-01T05:26:08.401Z,51.20
2022-12-01T05:28:36.108Z,42.25
2022-12-01T05:31:03.898Z,43.05
2022-12-01T05:33:31.565Z,46.85
2022-12-01T05:35:58.343Z,41.53
2022-12-01T05:38:25.204Z,40.65
2022-12-01T05:40:53.675Z,43.60
2022-12-01T05:43:28.287Z,43.28
2022-12-01T05:45:56.187Z,42.88
2022-12-01T05:48:23.031Z,37.85
2022-12-01T05:50:49.810Z,41.30
2022-12-01T05:53:16.798Z,45.63
2022-12-01T05:55:43.618Z,47.95
2022-12-01T05:58:10.813Z,43.97
2022-12-01T06:00:45.401Z,40.47
2022-12-01T06:03:13.564Z,40.30
2022-12-01T06:05:41.086Z,39.63
2022-12-01T06:08:08.417Z,40.22
2022-12-01T06:10:35.179Z,49.30
2022-12-01T06:13:01.900Z,40.95
2022-12-01T06:15:28.692Z,42.65
2022-12-01T06:17:58.650Z,44.28
2022-12-01T06:20:25.872Z,41.08
2022-12-01T06:22:52.666Z,39.85
2022-12-01T06:25:19.409Z,38.75
2022-12-01T06:27:46.126Z,39.72
2022-12-01T06:30:13.249Z,37.45
2022-12-01T06:32:40.032Z,36.80
2022-12-01T06:35:07.343Z,36.45
2022-12-01T06:37:34.163Z,38.53
2022-12-01T06:40:01.367Z,41.72
2022-12-01T06:42:31.623Z,36.53
2022-12-01T06:44:58.409Z,39.42
2022-12-01T06:47:25.218Z,40.60
2022-12-01T06:49:52.239Z,37.03
2022-12-01T06:52:19.271Z,39.28
2022-12-01T06:54:46.015Z,36.72
2022-12-01T06:57:12.987Z,37.92
2022-12-01T06:59:39.849Z,37.78
2022-12-01T07:02:06.955Z,34.47
2022-12-01T07:04:33.730Z,38.22
2022-12-01T07:07:00.459Z,43.53
2022-12-01T07:09:27.231Z,38.63
2022-12-01T07:11:53.942Z,41.33
2022-12-01T07:14:24.848Z,37.83
2022-12-01T07:16:51.762Z,37.72
2022-12-01T07:19:19.080Z,36.53
2022-12-01T07:21:45.935Z,36.13
2022-12-01T07:24:13.137Z,41.03
2022-12-01T07:26:41.236Z,38.08
2022-12-01T07:29:09.376Z,42.28
2022-12-01T07:31:37.319Z,35.72
2022-12-01T07:34:05.142Z,42.92
2022-12-01T07:36:31.984Z,43.38
2022-12-01T07:38:58.866Z,43.80
2022-12-01T07:41:25.661Z,42.42
2022-12-01T07:43:52.449Z,40.30
2022-12-01T07:46:23.657Z,41.13
2022-12-01T07:48:52.324Z,37.08
2022-12-01T07:51:20.015Z,44.95
2022-12-01T07:53:49.235Z,37.33
2022-12-01T07:56:16.804Z,42.80
2022-12-01T07:58:44.430Z,42.53
2022-12-01T08:01:17.828Z,39.80
2022-12-01T08:04:01.067Z,41.13
2022-12-01T08:06:32.716Z,44.50
2022-12-01T08:08:59.906Z,47.28
2022-12-01T08:11:29.886Z,46.85
2022-12-01T08:13:58.991Z,49.65
2022-12-01T08:16:26.392Z,42.00
2022-12-01T08:18:53.936Z,39.65
2022-12-01T08:21:22.643Z,39.05
2022-12-01T08:23:58.706Z,40.97
2022-12-01T08:26:26.291Z,41.10
2022-12-01T08:28:53.225Z,43.95
2022-12-01T08:31:31.742Z,44.28
2022-12-01T08:33:59.154Z,41.97
2022-12-01T08:36:26.660Z,41.20
2022-12-01T08:38:55.570Z,44.03
2022-12-01T08:41:24.664Z,48.08
2022-12-01T08:43:59.635Z,45.75
2022-12-01T08:46:36.651Z,46.15
2022-12-01T08:49:06.985Z,42.28
2022-12-01T08:51:33.988Z,49.70
2022-12-01T08:54:00.839Z,44.40
2022-12-01T08:56:31.443Z,47.05
2022-12-01T08:59:01.832Z,48.30
2022-12-01T09:01:31.180Z,53.15
2022-12-01T09:04:06.848Z,56.17
2022-12-01T09:06:39.714Z,61.05
2022-12-01T09:09:09.062Z,50.42
2022-12-01T09:11:35.904Z,46.78
2022-12-01T09:14:06.603Z,46.80
2022-12-01T09:16:33.577Z,56.60
2022-12-01T09:19:00.463Z,52.60
2022-12-01T09:21:33.009Z,59.97
2022-12-01T09:24:01.592Z,53.10
2022-12-01T09:26:28.890Z,50.38
2022-12-01T09:28:58.817Z,55.95
2022-12-01T09:31:25.617Z,51.92
2022-12-01T09:33:57.451Z,55.75
2022-12-01T09:38:51.326Z,55.13
2022-12-01T09:41:43.982Z,55.50
2022-12-01T09:44:14.101Z,53.75
2022-12-01T09:46:48.536Z,60.88
2022-12-01T09:49:56.511Z,50.45
2022-12-01T09:52:26.714Z,53.08
2022-12-01T09:54:55.306Z,51.03
2022-12-01T09:57:33.633Z,52.30
2022-12-01T10:00:04.604Z,54.05
2022-12-01T10:02:44.088Z,55.25
2022-12-01T10:05:16.597Z,54.90
2022-12-01T10:07:49.056Z,66.50
2022-12-01T10:10:27.976Z,55.35
2022-12-01T10:12:54.823Z,56.38
2022-12-01T10:15:27.392Z,64.10
2022-12-01T10:17:59.969Z,54.28
2022-12-01T10:20:49.240Z,58.47
2022-12-01T10:23:24.860Z,54.58
2022-12-01T10:26:03.752Z,51.60
2022-12-01T10:28:49.264Z,51.78
2022-12-01T10:31:21.621Z,53.85
2022-12-01T10:34:20.071Z,53.80
2022-12-01T10:36:47.206Z,49.88
2022-12-01T10:39:23.948Z,53.47
2022-12-01T10:41:51.664Z,54.47
2022-12-01T10:44:19.136Z,60.58
2022-12-01T10:46:56.248Z,53.03
2022-12-01T10:49:39.184Z,48.20
2022-12-01T10:52:07.034Z,56.53
2022-12-01T10:54:40.156Z,51.50
2022-12-01T10:57:17.521Z,54.17
2022-12-01T10:59:58.056Z,56.53
2022-12-01T11:02:28.098Z,56.22
2022-12-01T11:05:00.036Z,54.35
2022-12-01T11:07:44.230Z,52.78
2022-12-01T11:10:29.955Z,48.47
2022-12-01T11:13:06.102Z,53.55
2022-12-01T11:15:38.513Z,53.28
2022-12-01T11:18:26.970Z,52.45
2022-12-01T11:21:05.545Z,50.17
2022-12-01T11:23:35.332Z,56.03
2022-12-01T11:26:20.744Z,55.65
2022-12-01T11:29:02.977Z,57.58
2022-12-01T11:31:50.973Z,55.03
2022-12-01T11:34:26.678Z,51.58
2022-12-01T11:37:00.348Z,56.65
2022-12-01T11:39:37.905Z,48.03
2022-12-01T11:42:14.660Z,49.92
2022-12-01T11:44:53.379Z,50.63
2022-12-01T11:47:24.431Z,47.72
2022-12-01T11:49:55.294Z,55.83
2022-12-01T11:52:30.612Z,48.30
2022-12-01T11:55:19.077Z,52.58
2022-12-01T11:57:49.388Z,53.33
2022-12-01T12:00:21.580Z,48.40
2022-12-01T12:03:00.961Z,56.55
2022-12-01T12:05:39.776Z,59.67
2022-12-01T12:08:38.724Z,51.05
2022-12-01T12:11:22.525Z,52.20
2022-12-01T12:13:49.296Z,56.42
2022-12-01T12:16:40.855Z,53.67
2022-12-01T12:19:34.111Z,58.35
2022-12-01T12:22:39.882Z,51.78
2022-12-01T12:25:12.482Z,54.80
2022-12-01T12:27:47.652Z,51.72
2022-12-01T12:30:32.123Z,60.03
2022-12-01T12:33:32.762Z,54.83
2022-12-01T12:35:59.485Z,58.10
2022-12-01T12:38:26.191Z,54.53
2022-12-01T12:41:05.032Z,57.85
2022-12-01T12:43:57.831Z,59.55
2022-12-01T12:46:57.742Z,57.58
2022-12-01T12:49:36.336Z,54.13
2022-12-01T12:52:10.987Z,59.40
2022-12-01T12:54:49.969Z,61.28
2022-12-01T12:57:40.774Z,58.83
2022-12-01T13:00:18.180Z,59.67
2022-12-01T13:03:07.421Z,61.03
2022-12-01T13:05:59.049Z,60.67
2022-12-01T13:08:34.587Z,61.47
2022-12-01T13:11:10.619Z,61.35
2022-12-01T13:13:46.936Z,65.63
2022-12-01T13:16:18.583Z,59.45
2022-12-01T13:21:19.132Z,66.05
2022-12-01T13:23:48.606Z,69.50
2022-12-01T13:26:17.471Z,63.85
2022-12-01T13:28:49.815Z,63.33
2022-12-01T13:31:19.076Z,63.85
2022-12-01T13:34:02.816Z,70.63
2022-12-01T13:36:46.403Z,65.75
2022-12-01T13:39:29.471Z,71.15
2022-12-01T13:42:21.787Z,65.10
2022-12-01T13:44:58.240Z,70.78
2022-12-01T13:47:24.979Z,74.38
2022-12-01T13:49:53.093Z,65.07
2022-12-01T13:52:22.761Z,83.93
2022-12-01T13:55:09.379Z,71.18
2022-12-01T13:57:44.967Z,72.05
2022-12-01T14:03:12.679Z,59.17
2022-12-01T14:05:42.334Z,66.40
2022-12-01T14:08:28.900Z,69.28
2022-12-01T14:10:59.741Z,65.97
2022-12-01T14:13:28.324Z,62.33
2022-12-01T14:16:00.626Z,65.00
2022-12-01T14:18:40.541Z,64.25
2022-12-01T14:21:10.594Z,56.20
2022-12-01T14:23:58.393Z,58.05
2022-12-01T14:26:25.539Z,57.38
2022-12-01T14:28:55.197Z,54.88
2022-12-01T14:31:23.822Z,50.47
2022-12-01T14:33:54.496Z,54.75
2022-12-01T14:36:24.337Z,51.72
2022-12-01T14:38:57.119Z,51.47
2022-12-01T14:42:02.848Z,50.45
2022-12-01T14:44:36.450Z,51.90
2022-12-01T14:47:12.324Z,50.33
2022-12-01T14:50:10.118Z,45.72
2022-12-01T14:52:52.249Z,44.97
2022-12-01T14:55:23.467Z,51.42
2022-12-01T14:57:52.816Z,48.42
2022-12-01T15:00:22.466Z,44.65
2022-12-01T15:02:56.129Z,50.90
2022-12-01T15:05:27.160Z,52.10
2022-12-01T15:08:40.235Z,45.72
2022-12-01T15:11:06.444Z,48.20
2022-12-01T15:13:39.101Z,43.55
2022-12-01T15:16:15.259Z,46.47
2022-12-01T15:18:42.187Z,42.65
2022-12-01T15:21:11.737Z,51.35
2022-12-01T15:24:15.403Z,44.95
2022-12-01T15:26:55.914Z,53.17
2022-12-01T15:29:33.107Z,38.17
2022-12-01T15:32:02.496Z,45.25
2022-12-01T15:34:37.200Z,40.47
2022-12-01T15:37:07.072Z,40.55
2022-12-01T15:39:43.629Z,44.40
2022-12-01T15:42:25.025Z,43.53
2022-12-01T15:45:02.047Z,39.33
2022-12-01T15:47:44.940Z,41.67
2022-12-01T15:50:26.876Z,42.47
2022-12-01T15:55:28.196Z,43.13
2022-12-01T15:57:55.133Z,47.80
2022-12-01T16:00:22.777Z,43.92
2022-12-01T16:02:53.361Z,40.42
2022-12-01T16:05:24.797Z,47.15
2022-12-01T16:08:13.633Z,49.47
2022-12-01T16:10:38.783Z,48.33
2022-12-01T16:13:43.578Z,51.00
2022-12-01T16:16:31.475Z,53.95
2022-12-01T16:19:21.907Z,52.90
2022-12-01T16:21:57.140Z,53.38
2022-12-01T16:24:28.157Z,49.08
2022-12-01T16:26:59.455Z,44.13
2022-12-01T16:29:28.491Z,47.22
2022-12-01T16:32:19.328Z,46.55
2022-12-01T16:34:47.254Z,41.67
2022-12-01T16:37:15.398Z,50.88
2022-12-01T16:39:42.575Z,47.63
2022-12-01T16:42:15.765Z,47.92
2022-12-01T16:44:44.809Z,51.70
2022-12-01T16:47:23.113Z,53.00
2022-12-01T16:49:50.919Z,47.45
2022-12-01T16:55:43.086Z,49.53
2022-12-01T16:58:10.480Z,48.97
2022-12-01T17:00:37.242Z,43.17
2022-12-01T17:03:05.471Z,48.38
2022-12-01T17:05:33.062Z,45.28
2022-12-01T17:08:00.330Z,47.78
2022-12-01T17:10:27.179Z,55.55
2022-12-01T17:12:54.033Z,52.65
2022-12-01T17:15:20.992Z,49.92
2022-12-01T17:17:47.770Z,47.35
2022-12-01T17:20:14.545Z,50.03
2022-12-01T17:22:41.698Z,52.97
2022-12-01T17:25:11.812Z,52.90
2022-12-01T17:27:39.892Z,44.53
2022-12-01T17:30:08.064Z,54.13
2022-12-01T17:32:34.954Z,53.63
2022-12-01T17:35:01.825Z,48.30
2022-12-01T17:37:30.741Z,49.88
2022-12-01T17:39:57.603Z,52.58
2022-12-01T17:42:24.420Z,53.38
2022-12-01T17:44:51.359Z,55.72
2022-12-01T17:47:18.336Z,47.30
2022-12-01T17:49:45.056Z,53.65
2022-12-01T17:52:11.999Z,46.55
2022-12-01T17:54:39.178Z,50.80
2022-12-01T17:57:07.419Z,53.97
2022-12-01T17:59:36.959Z,58.67
2022-12-01T18:02:04.378Z,49.38
2022-12-01T18:04:31.809Z,54.33
2022-12-01T18:06:59.187Z,49.30
2022-12-01T18:09:26.023Z,50.55
2022-12-01T18:11:56.185Z,53.50
2022-12-01T18:14:24.343Z,54.00
2022-12-01T18:16:51.980Z,54.17
2022-12-01T18:19:19.503Z,55.65
2022-12-01T18:21:46.467Z,54.72
2022-12-01T18:24:13.293Z,49.88
2022-12-01T18:26:41.111Z,50.85
2022-12-01T18:29:13.013Z,51.70
2022-12-01T18:31:40.033Z,51.63
2022-12-01T18:34:08.045Z,54.85
2022-12-01T18:36:37.605Z,49.92
2022-12-01T18:39:07.767Z,46.15
2022-12-01T18:41:35.867Z,55.65
2022-12-01T18:44:02.775Z,50.40
2022-12-01T18:46:29.820Z,50.08
2022-12-01T18:49:04.675Z,49.63
2022-12-01T18:51:33.616Z,48.58
2022-12-01T18:54:02.348Z,54.17
2022-12-01T18:56:30.037Z,48.55
2022-12-01T18:58:59.499Z,50.30
2022-12-01T19:01:28.803Z,48.92
2022-12-01T19:03:56.828Z,51.22
2022-12-01T19:06:24.770Z,53.92
2022-12-01T19:08:52.847Z,47.70
2022-12-01T19:11:20.363Z,54.25
2022-12-01T19:13:47.884Z,47.00
2022-12-01T19:16:17.215Z,49.72
2022-12-01T19:18:44.299Z,46.90
2022-12-01T19:21:13.281Z,50.60
2022-12-01T19:23:40.240Z,47.15
2022-12-01T19:26:10.780Z,53.08
2022-12-01T19:28:38.697Z,46.13
2022-12-01T19:31:08.052Z,48.20
2022-12-01T19:33:35.495Z,53.22
2022-12-01T19:36:11.189Z,53.60
2022-12-01T19:38:38.499Z,59.50
2022-12-01T19:41:06.125Z,51.03
2022-12-01T19:43:37.182Z,55.92
2022-12-01T19:46:24.546Z,51.60
2022-12-01T19:49:01.808Z,53.88
2022-12-01T19:51:37.388Z,52.67
2022-12-01T19:54:14.505Z,44.38
2022-12-01T19:56:41.313Z,44.05
2022-12-01T19:59:08.215Z,50.00
2022-12-01T20:01:35.086Z,51.10
2022-12-01T20:04:01.894Z,45.40
2022-12-01T20:06:31.336Z,52.42
2022-12-01T20:09:03.279Z,46.25
2022-12-01T20:11:32.761Z,49.45
2022-12-01T20:13:59.901Z,46.08
2022-12-01T20:16:28.158Z,49.90
2022-12-01T20:18:55.097Z,49.63
2022-12-01T20:21:24.960Z,48.65
2022-12-01T20:23:58.192Z,55.45
2022-12-01T20:26:30.821Z,47.28
2022-12-01T20:29:04.044Z,48.38
2022-12-01T20:31:32.286Z,50.95
2022-12-01T20:34:01.471Z,47.15
2022-12-01T20:36:28.540Z,52.08
2022-12-01T20:38:55.718Z,45.92
2022-12-01T20:41:23.420Z,54.42
2022-12-01T20:43:50.331Z,50.95
2022-12-01T20:46:17.177Z,54.63
2022-12-01T20:48:44.275Z,50.72
2022-12-01T20:51:13.694Z,48.55
2022-12-01T20:53:44.443Z,57.00
2022-12-01T20:56:21.379Z,48.60
2022-12-01T20:58:48.164Z,50.75
2022-12-01T21:01:17.206Z,51.20
2022-12-01T21:03:45.485Z,50.50
2022-12-01T21:06:14.629Z,50.97
2022-12-01T21:08:43.279Z,49.55
2022-12-01T21:11:45.200Z,48.17
2022-12-01T21:14:43.987Z,51.42
2022-12-01T21:17:33.925Z,53.88
2022-12-01T21:20:12.972Z,52.35
2022-12-01T21:22:40.007Z,55.17
2022-12-01T21:25:12.453Z,49.95
2022-12-01T21:27:43.032Z,56.53
2022-12-01T21:30:21.998Z,59.22
2022-12-01T21:32:49.567Z,55.53
2022-12-01T21:35:22.301Z,53.00
2022-12-01T21:37:49.883Z,53.38
2022-12-01T21:40:18.251Z,51.55
2022-12-01T21:42:45.757Z,51.97
2022-12-01T21:45:32.124Z,53.60
2022-12-01T21:48:15.819Z,49.03
2022-12-01T21:50:42.582Z,52.47
2022-12-01T21:53:20.249Z,48.28
2022-12-01T21:55:49.237Z,49.60
2022-12-01T21:58:24.573Z,50.58
2022-12-01T22:00:55.726Z,50.25
2022-12-01T22:03:34.345Z,45.92
2022-12-01T22:06:32.759Z,47.65
2022-12-01T22:09:11.957Z,43.50
2022-12-01T22:11:38.644Z,48.03
2022-12-01T22:14:08.377Z,49.55
2022-12-01T22:16:47.017Z,50.10
2022-12-01T22:19:16.704Z,46.60
2022-12-01T22:21:54.748Z,47.00
2022-12-01T22:24:42.243Z,52.13
2022-12-01T22:27:38.213Z,49.53
2022-12-01T22:30:08.039Z,50.33
2022-12-01T22:32:59.045Z,44.15
2022-12-01T22:35:48.241Z,58.10
2022-12-01T22:38:38.151Z,48.03
2022-12-01T22:41:15.895Z,48.00
2022-12-01T22:43:51.455Z,52.85
2022-12-01T22:46:32.005Z,48.40
2022-12-01T22:49:06.382Z,51.42
2022-12-01T22:51:41.278Z,51.35
2022-12-01T22:54:24.737Z,50.50
2022-12-01T22:57:03.621Z,50.03
2022-12-01T22:59:38.793Z,47.10
2022-12-01T23:02:23.975Z,49.58
2022-12-01T23:04:59.003Z,47.88
2022-12-01T23:07:41.581Z,42.13
2022-12-01T23:10:33.848Z,45.83
2022-12-01T23:13:12.772Z,52.40
2022-12-01T23:15:43.066Z,43.67
2022-12-01T23:18:24.788Z,46.88
2022-12-01T23:20:54.038Z,47.17
2022-12-01T23:23:26.021Z,43.78
2022-12-01T23:25:52.796Z,38.67
2022-12-01T23:28:20.391Z,46.70
2022-12-01T23:30:51.182Z,46.92
2022-12-01T23:33:29.744Z,47.27
2022-12-01T23:36:06.000Z,48.22
2022-12-01T23:38:42.445Z,49.95
2022-12-01T23:41:38.966Z,47.45
2022-12-01T23:44:22.691Z,45.75
2022-12-01T23:46:53.024Z,49.13
2022-12-01T23:49:24.256Z,44.20
2022-12-01T23:51:53.749Z,44.08
2022-12-01T23:54:21.875Z,45.92
2022-12-01T23:56:53.155Z,46.88
2022-12-01T23:59:21.129Z,49.90
